createdAt,value
2023-03-10T00:01:11.657Z,97947.16
2023-03-10T00:03:38.081Z,97940.03
2023-03-10T00:06:04.922Z,97951.47
2023-03-10T00:08:31.352Z,97943.59
2023-03-10T00:10:57.750Z,97949.28
2023-03-10T00:13:24.151Z,97954.06
2023-03-10T00:15:50.659Z,97936.44
2023-03-10T00:18:17.100Z,97931.59
2023-03-10T00:20:43.479Z,97934.31
2023-03-10T00:23:09.842Z,97935.94
2023-03-10T00:25:36.367Z,97924.81
2023-03-10T00:28:02.776Z,97924.31
2023-03-10T00:30:30.675Z,97919.44
2023-03-10T00:32:59.003Z,97914.03
2023-03-10T00:35:25.451Z,97914.91
2023-03-10T00:37:51.839Z,97914.47
2023-03-10T00:40:18.554Z,97902.66
2023-03-10T00:42:45.076Z,97904.47
2023-03-10T00:45:11.612Z,97901.88
2023-03-10T00:47:38.037Z,97895.81
2023-03-10T00:50:04.901Z,97892.41
2023-03-10T00:52:32.901Z,97895.03
2023-03-10T00:54:59.327Z,97893.50
2023-03-10T00:57:26.684Z,97888.25
2023-03-10T00:59:53.040Z,97888.25
2023-03-10T01:02:20.074Z,97880.75
2023-03-10T01:04:47.690Z,97887.31
2023-03-10T01:07:14.226Z,97884.66
2023-03-10T01:09:40.646Z,97875.72
2023-03-10T01:12:07.476Z,97880.19
2023-03-10T01:14:33.918Z,97878.13
2023-03-10T01:17:00.271Z,97875.19
2023-03-10T01:19:26.692Z,97873.13
2023-03-10T01:21:53.355Z,97863.72
2023-03-10T01:24:19.874Z,97871.91
2023-03-10T01:26:46.352Z,97855.91
2023-03-10T01:29:15.951Z,97859.53
2023-03-10T01:31:42.406Z,97851.38
2023-03-10T01:34:08.898Z,97842.94
2023-03-10T01:36:35.575Z,97837.88
2023-03-10T01:39:02.061Z,97835.75
2023-03-10T01:41:28.488Z,97829.34
2023-03-10T01:43:56.874Z,97828.03
2023-03-10T01:46:47.467Z,97828.03
2023-03-10T01:49:31.427Z,97820.16
2023-03-10T01:52:26.661Z,97828.66
2023-03-10T01:54:56.402Z,97810.03
2023-03-10T01:57:26.468Z,97811.19
2023-03-10T01:59:54.258Z,97807.56
2023-03-10T02:02:20.721Z,97801.56
2023-03-10T02:04:48.906Z,97798.16
2023-03-10T02:07:18.778Z,97790.25
2023-03-10T02:09:48.256Z,97783.00
2023-03-10T02:12:17.113Z,97789.94
2023-03-10T02:14:45.156Z,97780.19
2023-03-10T02:17:16.930Z,97773.78
2023-03-10T02:19:52.261Z,97779.94
2023-03-10T02:22:18.760Z,97775.81
2023-03-10T02:24:51.562Z,97784.88
2023-03-10T02:27:22.855Z,97770.72
2023-03-10T02:30:00.139Z,97764.16
2023-03-10T02:32:30.246Z,97773.97
2023-03-10T02:34:56.666Z,97766.03
2023-03-10T02:37:29.883Z,97763.94
2023-03-10T02:39:57.136Z,97768.97
2023-03-10T02:42:27.049Z,97761.81
2023-03-10T02:44:54.408Z,97757.13
2023-03-10T02:47:20.849Z,97759.31
2023-03-10T02:49:47.600Z,97757.63
2023-03-10T02:52:34.524Z,97752.16
2023-03-10T02:55:00.951Z,97754.94
2023-03-10T02:57:27.387Z,97758.94
2023-03-10T02:59:53.812Z,97742.69
2023-03-10T03:02:20.164Z,97742.94
2023-03-10T03:04:46.500Z,97753.88
2023-03-10T03:07:12.937Z,97726.47
2023-03-10T03:09:39.425Z,97720.94
2023-03-10T03:12:06.092Z,97739.78
2023-03-10T03:14:32.630Z,97730.63
2023-03-10T03:16:59.086Z,97736.56
2023-03-10T03:19:27.638Z,97746.53
2023-03-10T03:21:55.108Z,97740.75
2023-03-10T03:24:21.471Z,97744.19
2023-03-10T03:26:47.950Z,97733.84
2023-03-10T03:29:14.400Z,97728.13
2023-03-10T03:31:41.343Z,97734.41
2023-03-10T03:34:07.950Z,97745.38
2023-03-10T03:36:34.799Z,97757.16
2023-03-10T03:39:01.235Z,97742.16
2023-03-10T03:41:27.649Z,97746.09
2023-03-10T03:43:54.034Z,97734.91
2023-03-10T03:46:20.503Z,97735.03
2023-03-10T03:48:46.931Z,97731.63
2023-03-10T03:51:13.442Z,97739.00
2023-03-10T03:53:39.862Z,97735.38
2023-03-10T03:56:06.545Z,97734.81
2023-03-10T03:58:33.014Z,97735.41
2023-03-10T04:00:59.417Z,97722.97
2023-03-10T04:03:25.806Z,97723.06
2023-03-10T04:05:52.206Z,97739.28
2023-03-10T04:08:18.765Z,97729.88
2023-03-10T04:10:51.447Z,97717.31
2023-03-10T04:13:17.962Z,97727.06
2023-03-10T04:15:44.454Z,97723.44
2023-03-10T04:18:10.913Z,97727.13
2023-03-10T04:20:37.806Z,97714.72
2023-03-10T04:23:04.246Z,97714.94
2023-03-10T04:25:31.258Z,97706.16
2023-03-10T04:27:57.996Z,97705.31
2023-03-10T04:30:29.153Z,97701.50
2023-03-10T04:33:00.024Z,97703.53
2023-03-10T04:35:27.164Z,97692.75
2023-03-10T04:37:53.872Z,97688.00
2023-03-10T04:40:20.567Z,97698.09
2023-03-10T04:42:47.323Z,97678.38
2023-03-10T04:45:13.964Z,97675.22
2023-03-10T04:47:41.553Z,97669.38
2023-03-10T04:50:10.199Z,97668.78
2023-03-10T04:52:36.628Z,97664.16
2023-03-10T04:55:03.578Z,97660.53
2023-03-10T04:57:29.920Z,97661.56
2023-03-10T04:59:56.412Z,97662.16
2023-03-10T05:02:22.778Z,97659.09
2023-03-10T05:04:49.245Z,97655.97
2023-03-10T05:07:15.666Z,97643.88
2023-03-10T05:09:42.673Z,97649.53
2023-03-10T05:12:10.747Z,97655.13
2023-03-10T05:14:37.949Z,97633.31
2023-03-10T05:17:04.746Z,97635.25
2023-03-10T05:19:33.973Z,97631.50
2023-03-10T05:22:00.713Z,97628.19
2023-03-10T05:24:27.088Z,97623.16
2023-03-10T05:26:53.532Z,97629.69
2023-03-10T05:29:20.891Z,97631.03
2023-03-10T05:31:47.764Z,97636.16
2023-03-10T05:34:14.384Z,97633.22
2023-03-10T05:36:41.573Z,97635.25
2023-03-10T05:39:09.459Z,97640.34
2023-03-10T05:41:36.916Z,97634.31
2023-03-10T05:44:03.629Z,97628.13
2023-03-10T05:46:30.312Z,97635.25
2023-03-10T05:48:57.412Z,97646.28
2023-03-10T05:51:23.942Z,97647.47
2023-03-10T05:53:50.347Z,97642.16
2023-03-10T05:56:19.061Z,97634.38
2023-03-10T05:58:46.760Z,97628.44
2023-03-10T06:01:13.734Z,97632.25
2023-03-10T06:03:40.847Z,97642.22
2023-03-10T06:06:07.824Z,97636.09
2023-03-10T06:08:34.870Z,97627.28
2023-03-10T06:11:01.286Z,97628.84
2023-03-10T06:13:27.815Z,97646.16
2023-03-10T06:16:00.616Z,97639.03
2023-03-10T06:18:27.987Z,97639.69
2023-03-10T06:20:54.448Z,97642.22
2023-03-10T06:23:22.105Z,97649.41
2023-03-10T06:26:00.290Z,97646.03
2023-03-10T06:28:32.722Z,97650.56
2023-03-10T06:31:00.904Z,97645.78
2023-03-10T06:33:28.207Z,97649.59
2023-03-10T06:35:54.753Z,97648.44
2023-03-10T06:38:21.658Z,97650.25
2023-03-10T06:40:48.873Z,97645.13
2023-03-10T06:43:16.263Z,97644.16
2023-03-10T06:45:45.099Z,97651.00
2023-03-10T06:48:12.428Z,97644.66
2023-03-10T06:50:43.664Z,97643.69
2023-03-10T06:53:11.215Z,97643.06
2023-03-10T06:55:38.444Z,97630.63
2023-03-10T06:58:04.880Z,97637.63
2023-03-10T07:00:31.579Z,97625.06
2023-03-10T07:02:58.079Z,97620.75
2023-03-10T07:05:27.155Z,97631.16
2023-03-10T07:07:55.367Z,97640.34
2023-03-10T07:10:22.819Z,97632.84
2023-03-10T07:12:54.995Z,97632.91
2023-03-10T07:15:22.939Z,97642.59
2023-03-10T07:17:49.461Z,97651.91
2023-03-10T07:20:15.900Z,97658.41
2023-03-10T07:22:42.281Z,97665.31
2023-03-10T07:25:09.231Z,97653.47
2023-03-10T07:27:35.584Z,97645.72
2023-03-10T07:30:02.259Z,97631.47
2023-03-10T07:32:28.704Z,97625.72
2023-03-10T07:34:55.325Z,97622.53
2023-03-10T07:37:21.771Z,97617.56
2023-03-10T07:39:48.309Z,97627.66
2023-03-10T07:42:14.703Z,97627.47
2023-03-10T07:44:41.094Z,97632.19
2023-03-10T07:47:07.464Z,97647.16
2023-03-10T07:49:33.811Z,97643.47
2023-03-10T07:52:00.160Z,97649.50
2023-03-10T07:54:26.539Z,97657.56
2023-03-10T07:56:52.912Z,97663.25
2023-03-10T07:59:19.336Z,97663.31
2023-03-10T08:01:45.689Z,97670.44
2023-03-10T08:04:12.571Z,97660.16
2023-03-10T08:06:39.161Z,97660.59
2023-03-10T08:09:05.559Z,97663.94
2023-03-10T08:11:31.966Z,97666.03
2023-03-10T08:13:58.459Z,97663.31
2023-03-10T08:16:25.085Z,97665.59
2023-03-10T08:18:53.362Z,97669.53
2023-03-10T08:21:20.376Z,97678.13
2023-03-10T08:23:47.012Z,97683.44
2023-03-10T08:26:15.557Z,97679.00
2023-03-10T08:28:42.244Z,97682.63
2023-03-10T08:31:15.561Z,97684.84
2023-03-10T08:33:42.986Z,97696.72
2023-03-10T08:36:21.397Z,97692.78
2023-03-10T08:38:50.407Z,97687.69
2023-03-10T08:41:23.691Z,97701.38
2023-03-10T08:43:52.368Z,97699.88
2023-03-10T08:46:20.845Z,97706.66
2023-03-10T08:48:47.392Z,97715.59
2023-03-10T08:51:15.907Z,97703.41
2023-03-10T08:53:44.585Z,97714.63
2023-03-10T08:56:10.958Z,97719.75
2023-03-10T08:58:37.393Z,97715.09
2023-03-10T09:01:04.755Z,97712.25
2023-03-10T09:03:32.032Z,97717.81
2023-03-10T09:05:58.710Z,97723.19
2023-03-10T09:08:27.455Z,97722.34
2023-03-10T09:10:54.437Z,97724.44
2023-03-10T09:13:21.125Z,97716.56
2023-03-10T09:15:47.494Z,97712.97
2023-03-10T09:18:15.217Z,97718.88
2023-03-10T09:20:42.519Z,97727.34
2023-03-10T09:23:10.507Z,97734.63
2023-03-10T09:25:37.071Z,97724.84
2023-03-10T09:28:03.622Z,97733.31
2023-03-10T09:30:30.616Z,97731.97
2023-03-10T09:32:57.128Z,97734.47
2023-03-10T09:35:23.697Z,97729.56
2023-03-10T09:37:50.193Z,97717.78
2023-03-10T09:40:19.442Z,97720.34
2023-03-10T09:42:50.824Z,97717.25
2023-03-10T09:45:51.319Z,97713.81
2023-03-10T09:48:36.800Z,97713.91
2023-03-10T09:51:14.217Z,97712.09
2023-03-10T09:53:49.649Z,97716.94
2023-03-10T09:56:20.161Z,97722.91
2023-03-10T09:58:53.124Z,97719.72
2023-03-10T10:01:23.684Z,97723.88
2023-03-10T10:04:13.392Z,97715.34
2023-03-10T10:06:44.352Z,97718.78
2023-03-10T10:09:29.330Z,97709.25
2023-03-10T10:11:56.471Z,97709.84
2023-03-10T10:14:29.933Z,97714.22
2023-03-10T10:17:09.654Z,97716.25
2023-03-10T10:19:39.376Z,97710.56
2023-03-10T10:22:17.850Z,97714.19
2023-03-10T10:25:02.402Z,97713.78
2023-03-10T10:27:31.394Z,97716.97
2023-03-10T10:29:58.522Z,97714.31
2023-03-10T10:32:25.346Z,97707.16
2023-03-10T10:34:51.789Z,97709.72
2023-03-10T10:37:29.286Z,97708.97
2023-03-10T10:39:58.044Z,97713.78
2023-03-10T10:42:25.966Z,97712.69
2023-03-10T10:44:55.032Z,97708.72
2023-03-10T10:47:36.452Z,97716.56
2023-03-10T10:50:35.745Z,97723.19
2023-03-10T10:53:21.917Z,97730.91
2023-03-10T10:56:03.980Z,97736.69
2023-03-10T10:58:38.833Z,97730.63
2023-03-10T11:01:14.360Z,97735.78
2023-03-10T11:03:46.112Z,97735.00
2023-03-10T11:06:18.648Z,97732.50
2023-03-10T11:08:50.875Z,97735.03
2023-03-10T11:11:40.611Z,97732.50
2023-03-10T11:14:25.616Z,97728.25
2023-03-10T11:17:15.343Z,97726.56
2023-03-10T11:19:49.677Z,97727.75
2023-03-10T11:22:29.795Z,97725.47
2023-03-10T11:25:05.128Z,97728.72
2023-03-10T11:27:55.669Z,97733.22
2023-03-10T11:30:38.163Z,97722.44
2023-03-10T11:33:35.110Z,97722.09
2023-03-10T11:36:18.740Z,97718.31
2023-03-10T11:38:48.364Z,97713.06
2023-03-10T11:41:19.252Z,97708.13
2023-03-10T11:43:56.112Z,97708.72
2023-03-10T11:46:47.918Z,97703.78
2023-03-10T11:49:19.684Z,97704.84
2023-03-10T11:51:54.012Z,97694.28
2023-03-10T11:54:28.755Z,97679.88
2023-03-10T11:56:56.010Z,97692.38
2023-03-10T11:59:24.163Z,97681.84
2023-03-10T12:02:03.975Z,97682.69
2023-03-10T12:04:37.482Z,97696.53
2023-03-10T12:07:23.552Z,97700.03
2023-03-10T12:09:54.188Z,97697.00
2023-03-10T12:12:26.533Z,97690.34
2023-03-10T12:14:54.200Z,97700.03
2023-03-10T12:17:20.762Z,97694.56
2023-03-10T12:20:09.327Z,97689.63
2023-03-10T12:22:46.221Z,97695.03
2023-03-10T12:25:27.808Z,97691.41
2023-03-10T12:28:15.828Z,97687.88
2023-03-10T12:30:48.305Z,97688.75
2023-03-10T12:33:42.458Z,97688.78
2023-03-10T12:36:27.456Z,97681.56
2023-03-10T12:38:58.930Z,97678.19
2023-03-10T12:41:28.358Z,97670.81
2023-03-10T12:44:13.642Z,97666.44
2023-03-10T12:46:40.321Z,97666.34
2023-03-10T12:49:31.011Z,97661.63
2023-03-10T12:52:20.984Z,97667.41
2023-03-10T12:55:05.965Z,97660.38
2023-03-10T12:57:38.584Z,97657.59
2023-03-10T13:00:19.884Z,97656.53
2023-03-10T13:02:55.505Z,97654.94
2023-03-10T13:05:29.411Z,97662.59
2023-03-10T13:08:01.147Z,97648.66
2023-03-10T13:10:30.564Z,97651.44
2023-03-10T13:13:02.326Z,97652.50
2023-03-10T13:15:31.364Z,97656.13
2023-03-10T13:18:19.722Z,97653.50
2023-03-10T13:20:47.236Z,97644.41
2023-03-10T13:23:24.371Z,97634.13
2023-03-10T13:25:55.698Z,97634.97
2023-03-10T13:28:27.316Z,97624.53
2023-03-10T13:31:16.889Z,97621.38
2023-03-10T13:33:53.471Z,97622.03
2023-03-10T13:36:37.734Z,97610.75
2023-03-10T13:39:10.127Z,97603.47
2023-03-10T13:41:40.847Z,97613.78
2023-03-10T13:44:17.157Z,97628.91
2023-03-10T13:46:54.076Z,97621.88
2023-03-10T13:49:25.466Z,97631.78
2023-03-10T13:51:54.891Z,97632.31
2023-03-10T13:54:27.145Z,97639.31
2023-03-10T13:57:15.830Z,97638.50
2023-03-10T13:59:42.851Z,97642.72
2023-03-10T14:02:19.580Z,97655.94
2023-03-10T14:04:49.034Z,97640.53
2023-03-10T14:07:30.050Z,97661.50
2023-03-10T14:10:05.290Z,97661.63
2023-03-10T14:12:50.103Z,97653.03
2023-03-10T14:15:19.597Z,97677.59
2023-03-10T14:17:52.454Z,97698.19
2023-03-10T14:20:40.870Z,97688.88
2023-03-10T14:23:19.727Z,97689.59
2023-03-10T14:25:49.467Z,97715.97
2023-03-10T14:28:26.333Z,97727.13
2023-03-10T14:30:53.896Z,97723.72
2023-03-10T14:33:20.576Z,97733.31
2023-03-10T14:35:47.041Z,97733.59
2023-03-10T14:38:13.719Z,97745.78
2023-03-10T14:40:46.920Z,97748.25
2023-03-10T14:43:28.260Z,97755.47
2023-03-10T14:46:01.323Z,97746.88
2023-03-10T14:48:30.768Z,97777.06
2023-03-10T14:50:57.304Z,97770.91
2023-03-10T14:53:25.905Z,97773.25
2023-03-10T14:55:56.041Z,97787.53
2023-03-10T14:58:29.521Z,97781.03
2023-03-10T15:00:56.013Z,97796.31
2023-03-10T15:03:22.420Z,97798.25
2023-03-10T15:05:49.579Z,97803.25
2023-03-10T15:08:17.204Z,97803.28
2023-03-10T15:10:48.251Z,97805.38
2023-03-10T15:13:16.536Z,97801.75
2023-03-10T15:15:45.196Z,97803.69
2023-03-10T15:18:14.535Z,97820.38
2023-03-10T15:20:41.130Z,97807.53
2023-03-10T15:23:08.935Z,97811.22
2023-03-10T15:25:35.402Z,97819.19
2023-03-10T15:28:01.991Z,97813.88
2023-03-10T15:30:31.799Z,97835.34
2023-03-10T15:32:58.323Z,97835.56
2023-03-10T15:35:25.290Z,97834.72
2023-03-10T15:37:52.218Z,97834.31
2023-03-10T15:40:24.858Z,97833.84
2023-03-10T15:42:52.315Z,97834.91
2023-03-10T15:45:19.431Z,97839.47
2023-03-10T15:47:46.909Z,97832.69
2023-03-10T15:50:14.757Z,97821.38
2023-03-10T15:52:53.314Z,97844.81
2023-03-10T15:55:20.255Z,97852.78
2023-03-10T15:57:50.147Z,97845.75
2023-03-10T16:00:21.371Z,97843.78
2023-03-10T16:02:48.938Z,97845.19
2023-03-10T16:05:15.787Z,97845.09
2023-03-10T16:07:42.380Z,97850.97
2023-03-10T16:10:10.471Z,97832.47
2023-03-10T16:12:36.814Z,97843.94
2023-03-10T16:15:03.615Z,97838.00
2023-03-10T16:17:30.037Z,97853.63
2023-03-10T16:19:56.718Z,97855.53
2023-03-10T16:22:23.207Z,97859.28
2023-03-10T16:24:49.641Z,97864.91
2023-03-10T16:27:16.007Z,97848.25
2023-03-10T16:29:42.906Z,97843.81
2023-03-10T16:32:10.070Z,97848.84
2023-03-10T16:34:36.668Z,97854.31
2023-03-10T16:37:03.243Z,97860.69
2023-03-10T16:39:32.729Z,97868.66
2023-03-10T16:41:59.577Z,97854.81
2023-03-10T16:44:26.148Z,97882.88
2023-03-10T16:46:52.598Z,97873.44
2023-03-10T16:49:19.175Z,97893.22
2023-03-10T16:51:47.576Z,97887.56
2023-03-10T16:54:17.143Z,97896.53
2023-03-10T16:56:47.494Z,97901.84
2023-03-10T16:59:18.353Z,97913.13
2023-03-10T17:01:45.583Z,97919.75
2023-03-10T17:04:12.423Z,97917.63
2023-03-10T17:06:39.235Z,97896.63
2023-03-10T17:09:07.638Z,97914.88
2023-03-10T17:11:37.998Z,97908.09
2023-03-10T17:14:07.765Z,97931.81
2023-03-10T17:16:35.566Z,97922.78
2023-03-10T17:19:04.871Z,97939.50
2023-03-10T17:21:35.773Z,97937.69
2023-03-10T17:24:03.703Z,97938.69
2023-03-10T17:26:30.497Z,97953.72
2023-03-10T17:28:57.156Z,97950.22
2023-03-10T17:31:26.108Z,97975.88
2023-03-10T17:34:00.996Z,97973.44
2023-03-10T17:36:27.975Z,97985.22
2023-03-10T17:38:59.854Z,97995.56
2023-03-10T17:41:27.183Z,98018.38
2023-03-10T17:43:54.939Z,98027.50
2023-03-10T17:46:24.377Z,98038.22
2023-03-10T17:48:51.963Z,98024.41
2023-03-10T17:51:21.469Z,98022.81
2023-03-10T17:53:48.064Z,98048.59
2023-03-10T17:56:16.290Z,98058.44
2023-03-10T17:58:43.454Z,98053.69
2023-03-10T18:01:19.013Z,98063.38
2023-03-10T18:03:48.048Z,98098.25
2023-03-10T18:06:20.674Z,98130.28
2023-03-10T18:08:47.541Z,98130.78
2023-03-10T18:11:14.301Z,98140.66
2023-03-10T18:13:40.944Z,98159.94
2023-03-10T18:16:13.894Z,98184.34
2023-03-10T18:18:40.386Z,98202.72
2023-03-10T18:21:09.006Z,98237.31
2023-03-10T18:23:35.446Z,98255.69
2023-03-10T18:26:05.744Z,98264.25
2023-03-10T18:28:32.221Z,98277.22
2023-03-10T18:30:58.644Z,98306.41
2023-03-10T18:33:25.080Z,98315.28
2023-03-10T18:35:51.659Z,98316.00
2023-03-10T18:38:18.273Z,98338.56
2023-03-10T18:40:44.857Z,98358.75
2023-03-10T18:43:11.265Z,98355.50
2023-03-10T18:45:43.969Z,98353.13
2023-03-10T18:48:10.420Z,98362.41
2023-03-10T18:50:36.861Z,98375.63
2023-03-10T18:53:03.266Z,98391.97
2023-03-10T18:55:29.678Z,98396.88
2023-03-10T18:57:56.019Z,98413.22
2023-03-10T19:00:23.695Z,98421.84
2023-03-10T19:02:53.313Z,98431.16
2023-03-10T19:05:20.665Z,98451.03
2023-03-10T19:07:47.357Z,98472.94
2023-03-10T19:10:16.281Z,98476.22
2023-03-10T19:12:42.668Z,98460.19
2023-03-10T19:15:12.324Z,98473.06
2023-03-10T19:17:39.534Z,98484.00
2023-03-10T19:20:09.044Z,98482.03
2023-03-10T19:22:36.089Z,98485.50
2023-03-10T19:25:04.847Z,98508.81
2023-03-10T19:27:31.339Z,98523.00
2023-03-10T19:29:58.404Z,98538.88
2023-03-10T19:32:25.880Z,98535.88
2023-03-10T19:34:52.379Z,98541.09
2023-03-10T19:37:19.037Z,98550.25
2023-03-10T19:39:45.489Z,98569.81
2023-03-10T19:42:11.895Z,98601.47
2023-03-10T19:44:39.003Z,98599.03
2023-03-10T19:47:05.619Z,98625.00
2023-03-10T19:49:34.129Z,98622.84
2023-03-10T19:52:01.344Z,98618.06
2023-03-10T19:54:27.930Z,98627.03
2023-03-10T19:56:54.350Z,98627.03
2023-03-10T19:59:20.915Z,98635.28
2023-03-10T20:01:49.212Z,98650.56
2023-03-10T20:04:16.187Z,98651.28
2023-03-10T20:06:42.735Z,98669.50
2023-03-10T20:09:10.609Z,98694.91
2023-03-10T20:11:40.766Z,98700.41
2023-03-10T20:14:08.088Z,98717.75
2023-03-10T20:16:34.596Z,98729.28
2023-03-10T20:19:01.463Z,98743.88
2023-03-10T20:21:27.896Z,98752.00
2023-03-10T20:23:56.235Z,98752.16
2023-03-10T20:26:23.083Z,98757.00
2023-03-10T20:28:50.308Z,98778.56
2023-03-10T20:31:22.938Z,98787.09
2023-03-10T20:33:49.765Z,98786.63
2023-03-10T20:36:16.236Z,98780.97
2023-03-10T20:38:44.083Z,98800.66
2023-03-10T20:41:16.692Z,98807.44
2023-03-10T20:43:43.977Z,98814.75
2023-03-10T20:46:10.839Z,98818.06
2023-03-10T20:48:37.646Z,98846.59
2023-03-10T20:51:04.378Z,98856.22
2023-03-10T20:53:37.283Z,98864.13
2023-03-10T20:56:08.484Z,98880.09
2023-03-10T20:58:35.001Z,98876.34
2023-03-10T21:01:01.565Z,98902.69
2023-03-10T21:03:28.021Z,98912.78
2023-03-10T21:05:54.427Z,98897.66
2023-03-10T21:08:20.823Z,98913.41
2023-03-10T21:10:49.340Z,98928.59
2023-03-10T21:13:16.005Z,98925.47
2023-03-10T21:15:42.412Z,98954.13
2023-03-10T21:18:08.994Z,98960.34
2023-03-10T21:20:35.532Z,98955.88
2023-03-10T21:23:02.000Z,98965.78
2023-03-10T21:25:28.371Z,98966.41
2023-03-10T21:27:58.721Z,98961.38
2023-03-10T21:30:31.618Z,98979.22
2023-03-10T21:32:58.419Z,98982.91
2023-03-10T21:35:26.682Z,98998.78
2023-03-10T21:37:55.205Z,98987.34
2023-03-10T21:40:21.875Z,98981.19
2023-03-10T21:42:49.376Z,98995.06
2023-03-10T21:45:19.561Z,99003.47
2023-03-10T21:47:46.096Z,99003.44
2023-03-10T21:50:13.710Z,99001.06
2023-03-10T21:52:41.322Z,99012.22
2023-03-10T21:55:11.385Z,99023.38
2023-03-10T21:57:38.307Z,99019.00
2023-03-10T22:00:09.263Z,99017.50
2023-03-10T22:02:36.999Z,99023.56
2023-03-10T22:05:06.236Z,99030.38
2023-03-10T22:07:33.416Z,99029.69
2023-03-10T22:09:59.946Z,99031.56
2023-03-10T22:12:26.412Z,99037.91
2023-03-10T22:14:56.296Z,99044.91
2023-03-10T22:17:24.585Z,99045.22
2023-03-10T22:19:52.448Z,99052.25
2023-03-10T22:22:18.833Z,99061.00
2023-03-10T22:24:45.244Z,99059.97
2023-03-10T22:27:11.694Z,99067.59
2023-03-10T22:29:38.150Z,99077.91
2023-03-10T22:32:05.282Z,99095.00
2023-03-10T22:34:31.766Z,99101.78
2023-03-10T22:36:58.468Z,99103.03
2023-03-10T22:39:25.108Z,99107.22
2023-03-10T22:41:51.999Z,99122.34
2023-03-10T22:44:18.495Z,99154.38
2023-03-10T22:46:46.490Z,99163.34
2023-03-10T22:49:14.192Z,99167.06
2023-03-10T22:51:41.315Z,99168.59
2023-03-10T22:54:07.758Z,99168.66
2023-03-10T22:56:34.204Z,99166.25
2023-03-10T22:59:03.787Z,99174.56
2023-03-10T23:01:30.577Z,99187.50
2023-03-10T23:03:57.283Z,99182.25
2023-03-10T23:06:24.525Z,99180.47
2023-03-10T23:08:51.845Z,99193.94
2023-03-10T23:11:18.341Z,99195.00
2023-03-10T23:13:44.805Z,99193.69
2023-03-10T23:16:11.250Z,99204.31
2023-03-10T23:18:37.667Z,99204.69
2023-03-10T23:21:04.603Z,99196.84
2023-03-10T23:23:31.916Z,99190.69
2023-03-10T23:25:58.340Z,99197.78
2023-03-10T23:28:24.765Z,99202.41
2023-03-10T23:30:51.282Z,99185.88
2023-03-10T23:33:20.348Z,99179.09
2023-03-10T23:35:50.167Z,99189.72
2023-03-10T23:38:16.571Z,99183.34
2023-03-10T23:40:43.047Z,99196.69
2023-03-10T23:43:09.504Z,99201.72
2023-03-10T23:45:38.291Z,99210.50
2023-03-10T23:48:07.290Z,99204.34
2023-03-10T23:50:36.562Z,99213.09
2023-03-10T23:53:04.886Z,99223.72
2023-03-10T23:55:37.613Z,99233.22
2023-03-10T23:58:04.973Z,99221.91
